sensor_id;sensor_type;location;lat;lon;timestamp;P1;durP1;ratioP1;P2;durP2;ratioP2
80983;SDS011;70442;53.094;8.792;2023-07-02T00:00:53;1.73;;;0.97;;
80983;SDS011;70442;53.094;8.792;2023-07-02T00:05:47;3.38;;;1.80;;
80983;SDS011;70442;53.094;8.792;2023-07-02T00:08:15;2.22;;;1.10;;
80983;SDS011;70442;53.094;8.792;2023-07-02T00:10:40;1.40;;;0.73;;
80983;SDS011;70442;53.094;8.792;2023-07-02T00:13:05;1.70;;;0.93;;
80983;SDS011;70442;53.094;8.792;2023-07-02T00:15:31;1.05;;;0.60;;
80983;SDS011;70442;53.094;8.792;2023-07-02T00:17:56;1.42;;;0.82;;
80983;SDS011;70442;53.094;8.792;2023-07-02T00:20:22;1.20;;;0.57;;
80983;SDS011;70442;53.094;8.792;2023-07-02T00:22:48;1.02;;;0.60;;
80983;SDS011;70442;53.094;8.792;2023-07-02T00:25:14;1.92;;;0.60;;
80983;SDS011;70442;53.094;8.792;2023-07-02T00:27:39;2.08;;;0.52;;
80983;SDS011;70442;53.094;8.792;2023-07-02T00:30:05;2.13;;;0.77;;
80983;SDS011;70442;53.094;8.792;2023-07-02T00:32:31;1.67;;;0.95;;
80983;SDS011;70442;53.094;8.792;2023-07-02T00:34:56;1.07;;;0.70;;
80983;SDS011;70442;53.094;8.792;2023-07-02T00:37:24;1.83;;;0.70;;
80983;SDS011;70442;53.094;8.792;2023-07-02T00:39:50;1.80;;;1.10;;
80983;SDS011;70442;53.094;8.792;2023-07-02T00:42:15;1.50;;;0.70;;
80983;SDS011;70442;53.094;8.792;2023-07-02T00:44:41;1.52;;;0.63;;
80983;SDS011;70442;53.094;8.792;2023-07-02T00:47:07;1.25;;;0.65;;
80983;SDS011;70442;53.094;8.792;2023-07-02T00:49:33;2.13;;;0.60;;
80983;SDS011;70442;53.094;8.792;2023-07-02T00:51:58;1.45;;;0.85;;
80983;SDS011;70442;53.094;8.792;2023-07-02T00:54:30;1.38;;;0.82;;
80983;SDS011;70442;53.094;8.792;2023-07-02T00:56:56;2.28;;;0.90;;
80983;SDS011;70442;53.094;8.792;2023-07-02T00:59:21;1.15;;;0.60;;
80983;SDS011;70442;53.094;8.792;2023-07-02T01:01:47;1.42;;;0.70;;
80983;SDS011;70442;53.094;8.792;2023-07-02T01:04:16;2.22;;;0.90;;
80983;SDS011;70442;53.094;8.792;2023-07-02T01:06:42;1.75;;;0.73;;
80983;SDS011;70442;53.094;8.792;2023-07-02T01:09:09;2.00;;;0.75;;
80983;SDS011;70442;53.094;8.792;2023-07-02T01:11:42;0.90;;;0.50;;
80983;SDS011;70442;53.094;8.792;2023-07-02T01:14:16;0.88;;;0.55;;
80983;SDS011;70442;53.094;8.792;2023-07-02T01:16:47;1.20;;;0.80;;
80983;SDS011;70442;53.094;8.792;2023-07-02T01:19:15;3.13;;;0.77;;
80983;SDS011;70442;53.094;8.792;2023-07-02T01:21:46;1.05;;;0.80;;
80983;SDS011;70442;53.094;8.792;2023-07-02T01:24:12;1.10;;;0.63;;
80983;SDS011;70442;53.094;8.792;2023-07-02T01:26:39;1.38;;;0.68;;
80983;SDS011;70442;53.094;8.792;2023-07-02T01:31:46;0.98;;;0.60;;
80983;SDS011;70442;53.094;8.792;2023-07-02T01:34:12;0.73;;;0.50;;
80983;SDS011;70442;53.094;8.792;2023-07-02T01:36:38;1.85;;;0.90;;
80983;SDS011;70442;53.094;8.792;2023-07-02T01:39:07;2.40;;;0.70;;
80983;SDS011;70442;53.094;8.792;2023-07-02T01:41:43;1.73;;;0.85;;
80983;SDS011;70442;53.094;8.792;2023-07-02T01:44:10;2.03;;;0.85;;
80983;SDS011;70442;53.094;8.792;2023-07-02T01:46:36;1.75;;;0.80;;
80983;SDS011;70442;53.094;8.792;2023-07-02T01:49:02;1.40;;;0.70;;
80983;SDS011;70442;53.094;8.792;2023-07-02T01:51:27;1.25;;;0.80;;
80983;SDS011;70442;53.094;8.792;2023-07-02T01:53:53;1.75;;;0.70;;
80983;SDS011;70442;53.094;8.792;2023-07-02T01:56:18;1.47;;;0.77;;
80983;SDS011;70442;53.094;8.792;2023-07-02T01:58:43;0.80;;;0.67;;
80983;SDS011;70442;53.094;8.792;2023-07-02T02:01:09;1.50;;;0.90;;
80983;SDS011;70442;53.094;8.792;2023-07-02T02:03:38;1.70;;;0.73;;
80983;SDS011;70442;53.094;8.792;2023-07-02T02:06:03;3.83;;;1.05;;
80983;SDS011;70442;53.094;8.792;2023-07-02T02:08:28;1.77;;;0.90;;
80983;SDS011;70442;53.094;8.792;2023-07-02T02:10:54;1.30;;;0.80;;
80983;SDS011;70442;53.094;8.792;2023-07-02T02:13:19;1.23;;;0.80;;
80983;SDS011;70442;53.094;8.792;2023-07-02T02:15:44;3.40;;;1.00;;
80983;SDS011;70442;53.094;8.792;2023-07-02T02:18:10;5.47;;;1.17;;
80983;SDS011;70442;53.094;8.792;2023-07-02T02:20:35;2.90;;;1.00;;
80983;SDS011;70442;53.094;8.792;2023-07-02T02:23:00;2.67;;;1.00;;
80983;SDS011;70442;53.094;8.792;2023-07-02T02:25:26;2.28;;;0.90;;
80983;SDS011;70442;53.094;8.792;2023-07-02T02:27:51;2.17;;;1.00;;
80983;SDS011;70442;53.094;8.792;2023-07-02T02:30:17;2.60;;;0.82;;
80983;SDS011;70442;53.094;8.792;2023-07-02T02:32:42;3.05;;;0.95;;
80983;SDS011;70442;53.094;8.792;2023-07-02T02:35:07;0.95;;;0.68;;
80983;SDS011;70442;53.094;8.792;2023-07-02T02:37:34;4.03;;;1.48;;
80983;SDS011;70442;53.094;8.792;2023-07-02T02:42:25;3.03;;;0.93;;
80983;SDS011;70442;53.094;8.792;2023-07-02T02:44:51;1.63;;;0.88;;
80983;SDS011;70442;53.094;8.792;2023-07-02T02:47:16;2.92;;;1.00;;
80983;SDS011;70442;53.094;8.792;2023-07-02T02:49:42;4.07;;;0.93;;
80983;SDS011;70442;53.094;8.792;2023-07-02T02:52:07;2.33;;;1.23;;
80983;SDS011;70442;53.094;8.792;2023-07-02T02:54:32;2.72;;;1.35;;
80983;SDS011;70442;53.094;8.792;2023-07-02T02:56:58;3.60;;;1.20;;
80983;SDS011;70442;53.094;8.792;2023-07-02T02:59:23;1.60;;;1.10;;
80983;SDS011;70442;53.094;8.792;2023-07-02T03:01:48;1.88;;;1.02;;
80983;SDS011;70442;53.094;8.792;2023-07-02T03:04:15;1.85;;;1.25;;
80983;SDS011;70442;53.094;8.792;2023-07-02T03:06:40;2.83;;;1.27;;
80983;SDS011;70442;53.094;8.792;2023-07-02T03:09:06;2.03;;;0.93;;
80983;SDS011;70442;53.094;8.792;2023-07-02T03:11:31;2.13;;;1.08;;
80983;SDS011;70442;53.094;8.792;2023-07-02T03:13:57;2.47;;;1.30;;
80983;SDS011;70442;53.094;8.792;2023-07-02T03:16:22;2.30;;;1.37;;
80983;SDS011;70442;53.094;8.792;2023-07-02T03:18:47;2.10;;;0.95;;
80983;SDS011;70442;53.094;8.792;2023-07-02T03:21:13;2.20;;;1.17;;
80983;SDS011;70442;53.094;8.792;2023-07-02T03:23:41;2.70;;;1.33;;
80983;SDS011;70442;53.094;8.792;2023-07-02T03:26:06;3.90;;;1.45;;
80983;SDS011;70442;53.094;8.792;2023-07-02T03:28:32;3.70;;;1.40;;
80983;SDS011;70442;53.094;8.792;2023-07-02T03:30:59;2.28;;;1.27;;
80983;SDS011;70442;53.094;8.792;2023-07-02T03:33:25;2.25;;;1.23;;
80983;SDS011;70442;53.094;8.792;2023-07-02T03:35:50;2.58;;;1.40;;
80983;SDS011;70442;53.094;8.792;2023-07-02T03:38:16;3.97;;;1.85;;
80983;SDS011;70442;53.094;8.792;2023-07-02T03:40:41;2.83;;;1.42;;
80983;SDS011;70442;53.094;8.792;2023-07-02T03:43:06;3.17;;;1.60;;
80983;SDS011;70442;53.094;8.792;2023-07-02T03:45:32;2.67;;;1.30;;
80983;SDS011;70442;53.094;8.792;2023-07-02T03:47:57;2.92;;;1.38;;
80983;SDS011;70442;53.094;8.792;2023-07-02T03:50:26;3.13;;;1.50;;
80983;SDS011;70442;53.094;8.792;2023-07-02T03:52:51;4.60;;;1.70;;
80983;SDS011;70442;53.094;8.792;2023-07-02T03:55:16;2.08;;;1.20;;
80983;SDS011;70442;53.094;8.792;2023-07-02T03:57:42;2.38;;;1.33;;
80983;SDS011;70442;53.094;8.792;2023-07-02T04:00:07;3.35;;;1.77;;
80983;SDS011;70442;53.094;8.792;2023-07-02T04:02:35;4.38;;;1.38;;
80983;SDS011;70442;53.094;8.792;2023-07-02T04:05:00;4.30;;;1.38;;
80983;SDS011;70442;53.094;8.792;2023-07-02T04:07:27;2.28;;;1.30;;
80983;SDS011;70442;53.094;8.792;2023-07-02T04:09:53;4.38;;;1.30;;
80983;SDS011;70442;53.094;8.792;2023-07-02T04:12:18;3.40;;;1.37;;
80983;SDS011;70442;53.094;8.792;2023-07-02T04:14:44;2.47;;;1.48;;
80983;SDS011;70442;53.094;8.792;2023-07-02T04:17:09;4.30;;;1.57;;
80983;SDS011;70442;53.094;8.792;2023-07-02T04:19:34;3.42;;;1.80;;
80983;SDS011;70442;53.094;8.792;2023-07-02T04:22:00;3.50;;;1.58;;
80983;SDS011;70442;53.094;8.792;2023-07-02T04:24:25;5.13;;;1.63;;
80983;SDS011;70442;53.094;8.792;2023-07-02T04:26:51;5.22;;;1.73;;
80983;SDS011;70442;53.094;8.792;2023-07-02T04:29:16;2.72;;;1.40;;
80983;SDS011;70442;53.094;8.792;2023-07-02T04:31:42;2.67;;;1.55;;
80983;SDS011;70442;53.094;8.792;2023-07-02T04:34:07;2.53;;;1.23;;
80983;SDS011;70442;53.094;8.792;2023-07-02T04:36:32;3.73;;;1.50;;
80983;SDS011;70442;53.094;8.792;2023-07-02T04:38:58;3.20;;;1.40;;
80983;SDS011;70442;53.094;8.792;2023-07-02T04:41:23;2.87;;;1.37;;
80983;SDS011;70442;53.094;8.792;2023-07-02T04:43:48;3.53;;;1.47;;
80983;SDS011;70442;53.094;8.792;2023-07-02T04:46:14;4.23;;;1.70;;
80983;SDS011;70442;53.094;8.792;2023-07-02T04:48:39;4.40;;;1.52;;
80983;SDS011;70442;53.094;8.792;2023-07-02T04:51:05;3.72;;;1.27;;
80983;SDS011;70442;53.094;8.792;2023-07-02T04:53:30;3.07;;;1.23;;
80983;SDS011;70442;53.094;8.792;2023-07-02T04:55:56;3.30;;;1.47;;
80983;SDS011;70442;53.094;8.792;2023-07-02T04:58:24;3.58;;;1.48;;
80983;SDS011;70442;53.094;8.792;2023-07-02T05:00:49;4.20;;;1.67;;
80983;SDS011;70442;53.094;8.792;2023-07-02T05:03:17;5.05;;;1.80;;
80983;SDS011;70442;53.094;8.792;2023-07-02T05:05:42;3.53;;;1.80;;
80983;SDS011;70442;53.094;8.792;2023-07-02T05:08:08;5.18;;;1.77;;
80983;SDS011;70442;53.094;8.792;2023-07-02T05:10:33;4.10;;;1.77;;
80983;SDS011;70442;53.094;8.792;2023-07-02T05:13:00;3.72;;;1.60;;
80983;SDS011;70442;53.094;8.792;2023-07-02T05:15:25;4.18;;;1.77;;
80983;SDS011;70442;53.094;8.792;2023-07-02T05:17:51;5.60;;;1.80;;
80983;SDS011;70442;53.094;8.792;2023-07-02T05:20:16;4.82;;;1.90;;
80983;SDS011;70442;53.094;8.792;2023-07-02T05:22:42;4.50;;;1.70;;
80983;SDS011;70442;53.094;8.792;2023-07-02T05:25:07;5.25;;;1.85;;
80983;SDS011;70442;53.094;8.792;2023-07-02T05:27:33;5.97;;;1.60;;
80983;SDS011;70442;53.094;8.792;2023-07-02T05:29:58;4.10;;;2.10;;
80983;SDS011;70442;53.094;8.792;2023-07-02T05:32:24;3.50;;;1.90;;
80983;SDS011;70442;53.094;8.792;2023-07-02T05:34:49;3.80;;;2.03;;
80983;SDS011;70442;53.094;8.792;2023-07-02T05:37:15;4.00;;;2.17;;
80983;SDS011;70442;53.094;8.792;2023-07-02T05:39:41;5.03;;;2.00;;
80983;SDS011;70442;53.094;8.792;2023-07-02T05:42:07;6.25;;;1.95;;
80983;SDS011;70442;53.094;8.792;2023-07-02T05:44:32;8.27;;;2.50;;
80983;SDS011;70442;53.094;8.792;2023-07-02T05:46:57;4.05;;;1.92;;
80983;SDS011;70442;53.094;8.792;2023-07-02T05:49:23;3.38;;;1.70;;
80983;SDS011;70442;53.094;8.792;2023-07-02T05:51:48;5.28;;;1.88;;
80983;SDS011;70442;53.094;8.792;2023-07-02T05:54:14;5.83;;;2.17;;
80983;SDS011;70442;53.094;8.792;2023-07-02T05:56:40;5.72;;;2.00;;
80983;SDS011;70442;53.094;8.792;2023-07-02T05:59:05;5.50;;;2.53;;
80983;SDS011;70442;53.094;8.792;2023-07-02T06:01:31;5.15;;;1.77;;
80983;SDS011;70442;53.094;8.792;2023-07-02T06:03:56;3.95;;;2.03;;
80983;SDS011;70442;53.094;8.792;2023-07-02T06:06:22;4.03;;;2.00;;
80983;SDS011;70442;53.094;8.792;2023-07-02T06:08:50;4.45;;;1.63;;
80983;SDS011;70442;53.094;8.792;2023-07-02T06:11:15;3.63;;;1.95;;
80983;SDS011;70442;53.094;8.792;2023-07-02T06:13:41;4.50;;;1.83;;
80983;SDS011;70442;53.094;8.792;2023-07-02T06:16:06;4.07;;;1.88;;
80983;SDS011;70442;53.094;8.792;2023-07-02T06:18:32;5.63;;;2.00;;
80983;SDS011;70442;53.094;8.792;2023-07-02T06:20:57;4.88;;;2.10;;
80983;SDS011;70442;53.094;8.792;2023-07-02T06:23:22;6.30;;;2.57;;
80983;SDS011;70442;53.094;8.792;2023-07-02T06:25:48;4.45;;;2.00;;
80983;SDS011;70442;53.094;8.792;2023-07-02T06:28:13;4.03;;;1.80;;
80983;SDS011;70442;53.094;8.792;2023-07-02T06:30:38;4.72;;;2.00;;
80983;SDS011;70442;53.094;8.792;2023-07-02T06:33:04;5.53;;;2.03;;
80983;SDS011;70442;53.094;8.792;2023-07-02T06:35:29;5.78;;;2.10;;
80983;SDS011;70442;53.094;8.792;2023-07-02T06:37:55;4.05;;;1.70;;
80983;SDS011;70442;53.094;8.792;2023-07-02T06:40:20;4.47;;;2.05;;
80983;SDS011;70442;53.094;8.792;2023-07-02T06:45:13;4.90;;;1.60;;
80983;SDS011;70442;53.094;8.792;2023-07-02T06:47:38;5.55;;;2.15;;
80983;SDS011;70442;53.094;8.792;2023-07-02T06:50:04;6.47;;;1.67;;
80983;SDS011;70442;53.094;8.792;2023-07-02T06:52:29;5.10;;;1.88;;
80983;SDS011;70442;53.094;8.792;2023-07-02T06:54:55;5.53;;;2.35;;
80983;SDS011;70442;53.094;8.792;2023-07-02T06:57:20;3.97;;;2.50;;
80983;SDS011;70442;53.094;8.792;2023-07-02T06:59:45;5.63;;;2.00;;
80983;SDS011;70442;53.094;8.792;2023-07-02T07:02:11;3.10;;;1.63;;
80983;SDS011;70442;53.094;8.792;2023-07-02T07:04:36;6.60;;;2.53;;
80983;SDS011;70442;53.094;8.792;2023-07-02T07:07:05;5.38;;;2.10;;
80983;SDS011;70442;53.094;8.792;2023-07-02T07:09:31;6.22;;;2.50;;
80983;SDS011;70442;53.094;8.792;2023-07-02T07:11:56;5.13;;;1.88;;
80983;SDS011;70442;53.094;8.792;2023-07-02T07:14:22;7.03;;;1.95;;
80983;SDS011;70442;53.094;8.792;2023-07-02T07:16:50;3.75;;;1.60;;
80983;SDS011;70442;53.094;8.792;2023-07-02T07:19:16;6.05;;;2.33;;
80983;SDS011;70442;53.094;8.792;2023-07-02T07:21:44;6.25;;;2.28;;
80983;SDS011;70442;53.094;8.792;2023-07-02T07:24:10;5.05;;;2.08;;
80983;SDS011;70442;53.094;8.792;2023-07-02T07:26:38;9.15;;;2.00;;
80983;SDS011;70442;53.094;8.792;2023-07-02T07:29:03;3.20;;;1.80;;
80983;SDS011;70442;53.094;8.792;2023-07-02T07:31:29;3.22;;;1.50;;
80983;SDS011;70442;53.094;8.792;2023-07-02T07:33:54;4.97;;;2.17;;
80983;SDS011;70442;53.094;8.792;2023-07-02T07:36:20;3.97;;;2.23;;
80983;SDS011;70442;53.094;8.792;2023-07-02T07:38:45;2.88;;;1.77;;
80983;SDS011;70442;53.094;8.792;2023-07-02T07:41:14;5.78;;;1.95;;
80983;SDS011;70442;53.094;8.792;2023-07-02T07:43:39;6.55;;;2.08;;
80983;SDS011;70442;53.094;8.792;2023-07-02T07:46:04;2.93;;;1.60;;
80983;SDS011;70442;53.094;8.792;2023-07-02T07:48:30;5.13;;;1.80;;
80983;SDS011;70442;53.094;8.792;2023-07-02T07:50:55;4.03;;;1.50;;
80983;SDS011;70442;53.094;8.792;2023-07-02T07:53:20;4.53;;;1.75;;
80983;SDS011;70442;53.094;8.792;2023-07-02T07:55:46;4.07;;;1.80;;
80983;SDS011;70442;53.094;8.792;2023-07-02T07:58:11;6.05;;;2.40;;
80983;SDS011;70442;53.094;8.792;2023-07-02T08:00:36;3.67;;;1.53;;
80983;SDS011;70442;53.094;8.792;2023-07-02T08:03:02;3.95;;;1.77;;
80983;SDS011;70442;53.094;8.792;2023-07-02T08:05:28;4.55;;;1.80;;
80983;SDS011;70442;53.094;8.792;2023-07-02T08:07:54;2.75;;;1.83;;
80983;SDS011;70442;53.094;8.792;2023-07-02T08:10:19;3.77;;;1.80;;
80983;SDS011;70442;53.094;8.792;2023-07-02T08:12:45;4.60;;;1.60;;
80983;SDS011;70442;53.094;8.792;2023-07-02T08:15:12;2.72;;;1.75;;
80983;SDS011;70442;53.094;8.792;2023-07-02T08:17:37;4.00;;;1.43;;
80983;SDS011;70442;53.094;8.792;2023-07-02T08:20:03;4.47;;;1.50;;
80983;SDS011;70442;53.094;8.792;2023-07-02T08:22:30;3.75;;;1.63;;
80983;SDS011;70442;53.094;8.792;2023-07-02T08:24:55;3.42;;;1.50;;
80983;SDS011;70442;53.094;8.792;2023-07-02T08:27:20;3.50;;;1.23;;
80983;SDS011;70442;53.094;8.792;2023-07-02T08:29:47;4.63;;;2.03;;
80983;SDS011;70442;53.094;8.792;2023-07-02T08:32:12;3.65;;;1.58;;
80983;SDS011;70442;53.094;8.792;2023-07-02T08:34:38;3.83;;;1.25;;
80983;SDS011;70442;53.094;8.792;2023-07-02T08:37:03;3.20;;;1.40;;
80983;SDS011;70442;53.094;8.792;2023-07-02T08:39:28;3.72;;;1.42;;
80983;SDS011;70442;53.094;8.792;2023-07-02T08:41:54;2.27;;;1.30;;
80983;SDS011;70442;53.094;8.792;2023-07-02T08:44:20;4.30;;;1.60;;
80983;SDS011;70442;53.094;8.792;2023-07-02T08:46:46;3.05;;;1.60;;
80983;SDS011;70442;53.094;8.792;2023-07-02T08:49:15;2.55;;;1.17;;
80983;SDS011;70442;53.094;8.792;2023-07-02T08:51:42;3.28;;;1.50;;
80983;SDS011;70442;53.094;8.792;2023-07-02T08:54:09;2.60;;;1.38;;
80983;SDS011;70442;53.094;8.792;2023-07-02T08:56:34;2.93;;;1.57;;
80983;SDS011;70442;53.094;8.792;2023-07-02T08:59:00;3.93;;;1.40;;
80983;SDS011;70442;53.094;8.792;2023-07-02T09:01:28;3.55;;;1.35;;
80983;SDS011;70442;53.094;8.792;2023-07-02T09:03:58;2.33;;;1.08;;
80983;SDS011;70442;53.094;8.792;2023-07-02T09:06:25;6.13;;;1.88;;
80983;SDS011;70442;53.094;8.792;2023-07-02T09:08:50;2.80;;;1.67;;
80983;SDS011;70442;53.094;8.792;2023-07-02T09:11:16;4.10;;;1.70;;
80983;SDS011;70442;53.094;8.792;2023-07-02T09:13:49;3.67;;;1.80;;
80983;SDS011;70442;53.094;8.792;2023-07-02T09:16:25;2.92;;;1.70;;
80983;SDS011;70442;53.094;8.792;2023-07-02T09:18:54;4.90;;;1.75;;
80983;SDS011;70442;53.094;8.792;2023-07-02T09:24:11;4.35;;;1.70;;
80983;SDS011;70442;53.094;8.792;2023-07-02T09:26:51;4.95;;;1.60;;
80983;SDS011;70442;53.094;8.792;2023-07-02T09:31:56;3.17;;;1.67;;
80983;SDS011;70442;53.094;8.792;2023-07-02T09:34:26;3.08;;;1.63;;
80983;SDS011;70442;53.094;8.792;2023-07-02T09:36:53;3.83;;;1.60;;
80983;SDS011;70442;53.094;8.792;2023-07-02T09:39:19;2.97;;;1.50;;
80983;SDS011;70442;53.094;8.792;2023-07-02T09:41:52;4.10;;;1.65;;
80983;SDS011;70442;53.094;8.792;2023-07-02T09:44:18;4.97;;;1.38;;
80983;SDS011;70442;53.094;8.792;2023-07-02T09:46:49;2.63;;;1.50;;
80983;SDS011;70442;53.094;8.792;2023-07-02T09:49:20;4.13;;;1.40;;
80983;SDS011;70442;53.094;8.792;2023-07-02T09:51:47;3.60;;;1.38;;
80983;SDS011;70442;53.094;8.792;2023-07-02T09:54:12;2.92;;;1.25;;
80983;SDS011;70442;53.094;8.792;2023-07-02T09:56:41;2.35;;;1.27;;
80983;SDS011;70442;53.094;8.792;2023-07-02T09:59:07;2.37;;;1.20;;
80983;SDS011;70442;53.094;8.792;2023-07-02T10:01:32;3.83;;;1.50;;
80983;SDS011;70442;53.094;8.792;2023-07-02T10:03:58;2.58;;;1.58;;
80983;SDS011;70442;53.094;8.792;2023-07-02T10:06:54;2.40;;;1.23;;
80983;SDS011;70442;53.094;8.792;2023-07-02T10:09:21;3.67;;;1.30;;
80983;SDS011;70442;53.094;8.792;2023-07-02T10:14:46;3.15;;;1.25;;
80983;SDS011;70442;53.094;8.792;2023-07-02T10:17:22;2.90;;;1.35;;
80983;SDS011;70442;53.094;8.792;2023-07-02T10:19:50;2.22;;;1.17;;
80983;SDS011;70442;53.094;8.792;2023-07-02T10:22:15;3.33;;;1.20;;
80983;SDS011;70442;53.094;8.792;2023-07-02T10:24:49;2.37;;;1.17;;
80983;SDS011;70442;53.094;8.792;2023-07-02T10:27:17;3.25;;;1.10;;
80983;SDS011;70442;53.094;8.792;2023-07-02T10:29:48;2.30;;;1.20;;
80983;SDS011;70442;53.094;8.792;2023-07-02T10:32:14;2.80;;;0.90;;
80983;SDS011;70442;53.094;8.792;2023-07-02T10:34:51;1.95;;;1.23;;
80983;SDS011;70442;53.094;8.792;2023-07-02T10:37:17;2.50;;;1.20;;
80983;SDS011;70442;53.094;8.792;2023-07-02T10:39:42;3.23;;;1.20;;
80983;SDS011;70442;53.094;8.792;2023-07-02T10:42:08;1.83;;;0.90;;
80983;SDS011;70442;53.094;8.792;2023-07-02T10:44:34;1.55;;;0.80;;
80983;SDS011;70442;53.094;8.792;2023-07-02T10:47:00;1.45;;;0.80;;
80983;SDS011;70442;53.094;8.792;2023-07-02T10:49:32;1.95;;;0.95;;
80983;SDS011;70442;53.094;8.792;2023-07-02T10:51:58;2.40;;;1.08;;
80983;SDS011;70442;53.094;8.792;2023-07-02T10:56:49;1.13;;;0.67;;
80983;SDS011;70442;53.094;8.792;2023-07-02T10:59:27;1.50;;;0.80;;
80983;SDS011;70442;53.094;8.792;2023-07-02T11:02:01;2.00;;;0.93;;
80983;SDS011;70442;53.094;8.792;2023-07-02T11:06:56;1.48;;;0.68;;
80983;SDS011;70442;53.094;8.792;2023-07-02T11:09:22;1.33;;;0.80;;
80983;SDS011;70442;53.094;8.792;2023-07-02T11:11:51;1.80;;;0.75;;
80983;SDS011;70442;53.094;8.792;2023-07-02T11:14:43;1.85;;;0.73;;
80983;SDS011;70442;53.094;8.792;2023-07-02T11:17:09;2.03;;;0.90;;
80983;SDS011;70442;53.094;8.792;2023-07-02T11:19:34;3.40;;;1.17;;
80983;SDS011;70442;53.094;8.792;2023-07-02T11:22:00;1.48;;;0.73;;
80983;SDS011;70442;53.094;8.792;2023-07-02T11:24:31;4.03;;;1.40;;
80983;SDS011;70442;53.094;8.792;2023-07-02T11:26:57;2.10;;;1.05;;
80983;SDS011;70442;53.094;8.792;2023-07-02T11:29:30;2.67;;;0.95;;
80983;SDS011;70442;53.094;8.792;2023-07-02T11:32:09;1.38;;;0.90;;
80983;SDS011;70442;53.094;8.792;2023-07-02T11:34:38;0.95;;;0.68;;
80983;SDS011;70442;53.094;8.792;2023-07-02T11:37:04;2.65;;;0.77;;
80983;SDS011;70442;53.094;8.792;2023-07-02T11:39:30;0.95;;;0.60;;
80983;SDS011;70442;53.094;8.792;2023-07-02T11:41:56;6.25;;;3.75;;
80983;SDS011;70442;53.094;8.792;2023-07-02T11:44:21;2.73;;;1.57;;
80983;SDS011;70442;53.094;8.792;2023-07-02T11:46:46;3.83;;;1.40;;
80983;SDS011;70442;53.094;8.792;2023-07-02T11:49:12;2.30;;;1.05;;
80983;SDS011;70442;53.094;8.792;2023-07-02T11:51:38;1.50;;;0.70;;
80983;SDS011;70442;53.094;8.792;2023-07-02T11:54:05;2.47;;;0.90;;
80983;SDS011;70442;53.094;8.792;2023-07-02T11:56:30;1.73;;;0.77;;
80983;SDS011;70442;53.094;8.792;2023-07-02T11:58:56;1.85;;;0.65;;
80983;SDS011;70442;53.094;8.792;2023-07-02T12:01:22;1.23;;;0.75;;
80983;SDS011;70442;53.094;8.792;2023-07-02T12:03:50;5.55;;;0.82;;
80983;SDS011;70442;53.094;8.792;2023-07-02T12:06:16;1.73;;;0.93;;
80983;SDS011;70442;53.094;8.792;2023-07-02T12:08:41;4.25;;;0.90;;
80983;SDS011;70442;53.094;8.792;2023-07-02T12:11:07;1.30;;;0.60;;
80983;SDS011;70442;53.094;8.792;2023-07-02T12:13:33;2.10;;;1.00;;
80983;SDS011;70442;53.094;8.792;2023-07-02T12:15:58;2.33;;;0.90;;
80983;SDS011;70442;53.094;8.792;2023-07-02T12:18:26;2.33;;;0.80;;
80983;SDS011;70442;53.094;8.792;2023-07-02T12:20:52;2.92;;;1.15;;
80983;SDS011;70442;53.094;8.792;2023-07-02T12:23:17;2.20;;;0.90;;
80983;SDS011;70442;53.094;8.792;2023-07-02T12:25:43;1.70;;;0.83;;
80983;SDS011;70442;53.094;8.792;2023-07-02T12:28:08;2.30;;;0.70;;
80983;SDS011;70442;53.094;8.792;2023-07-02T12:30:34;1.92;;;0.90;;
80983;SDS011;70442;53.094;8.792;2023-07-02T12:32:59;1.80;;;0.93;;
80983;SDS011;70442;53.094;8.792;2023-07-02T12:35:27;1.98;;;1.05;;
80983;SDS011;70442;53.094;8.792;2023-07-02T12:37:53;4.45;;;0.98;;
80983;SDS011;70442;53.094;8.792;2023-07-02T12:40:18;1.95;;;1.00;;
80983;SDS011;70442;53.094;8.792;2023-07-02T12:42:45;1.92;;;0.90;;
80983;SDS011;70442;53.094;8.792;2023-07-02T12:45:11;2.20;;;1.05;;
80983;SDS011;70442;53.094;8.792;2023-07-02T12:47:38;2.85;;;0.93;;
80983;SDS011;70442;53.094;8.792;2023-07-02T12:50:04;1.92;;;0.68;;
80983;SDS011;70442;53.094;8.792;2023-07-02T12:52:30;1.98;;;1.00;;
80983;SDS011;70442;53.094;8.792;2023-07-02T12:54:55;3.33;;;0.93;;
80983;SDS011;70442;53.094;8.792;2023-07-02T12:57:20;2.17;;;0.90;;
80983;SDS011;70442;53.094;8.792;2023-07-02T12:59:46;2.07;;;0.90;;
80983;SDS011;70442;53.094;8.792;2023-07-02T13:02:11;1.67;;;0.98;;
80983;SDS011;70442;53.094;8.792;2023-07-02T13:04:37;2.43;;;1.00;;
80983;SDS011;70442;53.094;8.792;2023-07-02T13:07:03;2.90;;;1.27;;
80983;SDS011;70442;53.094;8.792;2023-07-02T13:09:28;3.05;;;1.25;;
80983;SDS011;70442;53.094;8.792;2023-07-02T13:11:54;2.83;;;0.75;;
80983;SDS011;70442;53.094;8.792;2023-07-02T13:14:19;2.60;;;0.80;;
80983;SDS011;70442;53.094;8.792;2023-07-02T13:16:45;1.70;;;0.80;;
80983;SDS011;70442;53.094;8.792;2023-07-02T13:19:13;2.13;;;1.15;;
80983;SDS011;70442;53.094;8.792;2023-07-02T13:21:40;3.10;;;0.98;;
80983;SDS011;70442;53.094;8.792;2023-07-02T13:24:06;1.75;;;0.90;;
80983;SDS011;70442;53.094;8.792;2023-07-02T13:26:37;1.90;;;0.80;;
80983;SDS011;70442;53.094;8.792;2023-07-02T13:29:02;2.58;;;1.10;;
80983;SDS011;70442;53.094;8.792;2023-07-02T13:31:27;2.10;;;0.80;;
80983;SDS011;70442;53.094;8.792;2023-07-02T13:33:53;2.60;;;0.93;;
80983;SDS011;70442;53.094;8.792;2023-07-02T13:36:18;2.30;;;1.00;;
80983;SDS011;70442;53.094;8.792;2023-07-02T13:38:43;1.60;;;0.77;;
80983;SDS011;70442;53.094;8.792;2023-07-02T13:41:09;1.85;;;0.70;;
80983;SDS011;70442;53.094;8.792;2023-07-02T13:43:34;3.10;;;1.07;;
80983;SDS011;70442;53.094;8.792;2023-07-02T13:46:00;1.58;;;0.90;;
80983;SDS011;70442;53.094;8.792;2023-07-02T13:48:26;1.33;;;0.80;;
80983;SDS011;70442;53.094;8.792;2023-07-02T13:50:51;2.08;;;0.80;;
80983;SDS011;70442;53.094;8.792;2023-07-02T13:53:17;2.10;;;1.30;;
80983;SDS011;70442;53.094;8.792;2023-07-02T13:55:45;3.20;;;1.13;;
80983;SDS011;70442;53.094;8.792;2023-07-02T13:58:13;1.52;;;0.77;;
80983;SDS011;70442;53.094;8.792;2023-07-02T14:00:38;2.08;;;0.85;;
80983;SDS011;70442;53.094;8.792;2023-07-02T14:03:05;1.60;;;0.80;;
80983;SDS011;70442;53.094;8.792;2023-07-02T14:05:30;1.65;;;0.70;;
80983;SDS011;70442;53.094;8.792;2023-07-02T14:07:56;1.20;;;0.80;;
80983;SDS011;70442;53.094;8.792;2023-07-02T14:10:22;1.77;;;1.00;;
80983;SDS011;70442;53.094;8.792;2023-07-02T14:12:47;3.88;;;1.15;;
80983;SDS011;70442;53.094;8.792;2023-07-02T14:15:15;1.83;;;1.05;;
80983;SDS011;70442;53.094;8.792;2023-07-02T14:17:40;1.95;;;1.08;;
80983;SDS011;70442;53.094;8.792;2023-07-02T14:20:07;1.53;;;0.80;;
80983;SDS011;70442;53.094;8.792;2023-07-02T14:22:33;1.80;;;0.70;;
80983;SDS011;70442;53.094;8.792;2023-07-02T14:24:58;2.10;;;0.80;;
80983;SDS011;70442;53.094;8.792;2023-07-02T14:27:26;1.67;;;0.73;;
80983;SDS011;70442;53.094;8.792;2023-07-02T14:29:52;1.95;;;1.05;;
80983;SDS011;70442;53.094;8.792;2023-07-02T14:32:17;2.03;;;0.97;;
80983;SDS011;70442;53.094;8.792;2023-07-02T14:34:43;2.72;;;0.88;;
80983;SDS011;70442;53.094;8.792;2023-07-02T14:37:08;2.28;;;0.90;;
80983;SDS011;70442;53.094;8.792;2023-07-02T14:39:34;2.77;;;0.97;;
80983;SDS011;70442;53.094;8.792;2023-07-02T14:41:59;1.70;;;0.73;;
80983;SDS011;70442;53.094;8.792;2023-07-02T14:44:25;3.83;;;1.17;;
80983;SDS011;70442;53.094;8.792;2023-07-02T14:46:51;3.10;;;0.90;;
80983;SDS011;70442;53.094;8.792;2023-07-02T14:49:17;1.60;;;0.70;;
80983;SDS011;70442;53.094;8.792;2023-07-02T14:51:42;2.03;;;0.90;;
80983;SDS011;70442;53.094;8.792;2023-07-02T14:54:09;2.40;;;1.00;;
80983;SDS011;70442;53.094;8.792;2023-07-02T14:56:35;1.77;;;0.73;;
80983;SDS011;70442;53.094;8.792;2023-07-02T14:59:03;3.70;;;0.90;;
80983;SDS011;70442;53.094;8.792;2023-07-02T15:01:29;4.32;;;1.35;;
80983;SDS011;70442;53.094;8.792;2023-07-02T15:03:54;3.28;;;1.50;;
80983;SDS011;70442;53.094;8.792;2023-07-02T15:06:20;2.05;;;1.23;;